createdAt,value
2019-01-23T00:02:00.504Z,-7.86
2019-01-23T00:07:10.464Z,-7.75
2019-01-23T00:12:16.112Z,-8.12
2019-01-23T00:17:21.754Z,-8.00
2019-01-23T00:22:27.368Z,-7.93
2019-01-23T00:27:33.029Z,-8.15
2019-01-23T00:32:40.500Z,-8.08
2019-01-23T00:37:46.538Z,-8.19
2019-01-23T00:42:52.157Z,-8.11
2019-01-23T00:47:57.781Z,-8.22
2019-01-23T00:53:03.490Z,-8.12
2019-01-23T00:58:09.125Z,-7.99
2019-01-23T01:03:14.791Z,-8.22
2019-01-23T01:08:20.417Z,-8.44
2019-01-23T01:13:26.045Z,-8.60
2019-01-23T01:18:33.024Z,-8.21
2019-01-23T01:23:38.609Z,-8.38
2019-01-23T01:28:44.292Z,-8.38
2019-01-23T01:33:49.907Z,-8.24
2019-01-23T01:38:55.677Z,-8.46
2019-01-23T01:44:01.566Z,-8.66
2019-01-23T01:49:10.138Z,-8.42
2019-01-23T01:54:15.802Z,-8.39
2019-01-23T01:59:23.025Z,-8.53
2019-01-23T02:04:28.599Z,-8.60
2019-01-23T02:09:35.522Z,-8.70
2019-01-23T02:14:41.372Z,-8.60
2019-01-23T02:19:47.066Z,-8.54
2019-01-23T02:24:52.704Z,-8.51
2019-01-23T02:29:58.371Z,-8.48
2019-01-23T02:35:04.569Z,-8.80
2019-01-23T02:40:13.910Z,-8.59
2019-01-23T02:45:23.052Z,-8.61
2019-01-23T02:50:28.684Z,-8.36
2019-01-23T02:55:34.556Z,-8.61
2019-01-23T03:00:40.201Z,-8.73
2019-01-23T03:05:45.875Z,-8.80
2019-01-23T03:10:51.479Z,-8.68
2019-01-23T03:15:57.191Z,-8.68
2019-01-23T03:21:03.007Z,-8.62
2019-01-23T03:26:10.185Z,-8.71
2019-01-23T03:31:15.990Z,-8.96
2019-01-23T03:36:21.712Z,-8.83
2019-01-23T03:41:27.331Z,-8.68
2019-01-23T03:46:32.932Z,-8.68
2019-01-23T03:51:38.546Z,-8.88
2019-01-23T03:56:44.966Z,-8.57
2019-01-23T04:01:50.600Z,-8.13
2019-01-23T04:06:56.282Z,-7.79
2019-01-23T04:12:01.946Z,-8.28
2019-01-23T04:17:08.039Z,-8.34
2019-01-23T04:22:13.761Z,-8.09
2019-01-23T04:27:19.479Z,-8.01
2019-01-23T04:32:25.087Z,-8.22
2019-01-23T04:37:30.993Z,-8.23
2019-01-23T04:42:36.647Z,-7.98
2019-01-23T04:47:42.252Z,-8.29
2019-01-23T04:53:21.958Z,-8.09
2019-01-23T04:58:29.131Z,-8.04
2019-01-23T05:03:37.952Z,-8.23
2019-01-23T05:08:46.329Z,-8.50
2019-01-23T05:13:51.972Z,-8.05
2019-01-23T05:18:57.584Z,-7.37
2019-01-23T05:24:03.649Z,-6.99
2019-01-23T05:29:09.693Z,-6.76
2019-01-23T05:34:15.670Z,-6.74
2019-01-23T05:39:21.307Z,-6.66
2019-01-23T05:44:26.957Z,-6.77
2019-01-23T05:49:32.594Z,-6.63
2019-01-23T05:54:38.670Z,-6.77
2019-01-23T05:59:44.828Z,-6.65
2019-01-23T06:04:51.971Z,-6.95
2019-01-23T06:10:04.579Z,-7.15
2019-01-23T06:15:11.744Z,-7.09
2019-01-23T06:20:23.378Z,-7.08
2019-01-23T06:25:29.077Z,-7.13
2019-01-23T06:30:36.486Z,-6.94
2019-01-23T06:35:42.975Z,-7.11
2019-01-23T06:40:51.678Z,-7.27
2019-01-23T06:46:00.469Z,-7.29
2019-01-23T06:51:08.475Z,-7.35
2019-01-23T06:56:18.123Z,-7.11
2019-01-23T07:01:24.735Z,-7.26
2019-01-23T07:06:30.399Z,-7.38
2019-01-23T07:11:36.010Z,-7.24
2019-01-23T07:16:41.616Z,-7.14
2019-01-23T07:21:47.285Z,-7.27
2019-01-23T07:26:53.011Z,-6.84
2019-01-23T07:31:58.593Z,-7.13
2019-01-23T07:37:05.763Z,-7.02
2019-01-23T07:42:11.722Z,-7.15
2019-01-23T07:47:17.310Z,-6.98
2019-01-23T07:52:22.937Z,-7.21
2019-01-23T07:57:28.542Z,-6.87
2019-01-23T08:02:34.376Z,-6.92
2019-01-23T08:07:41.461Z,-6.70
2019-01-23T08:12:47.432Z,-6.78
2019-01-23T08:17:53.073Z,-6.68
2019-01-23T08:22:58.880Z,-6.42
2019-01-23T08:28:05.810Z,-6.14
2019-01-23T08:33:11.439Z,-6.14
2019-01-23T08:38:17.139Z,-5.65
2019-01-23T08:43:22.797Z,-5.52
2019-01-23T08:48:28.458Z,-5.33
2019-01-23T08:53:34.054Z,-4.72
2019-01-23T08:58:39.738Z,-4.69
2019-01-23T09:03:45.335Z,-4.50
2019-01-23T09:08:51.378Z,-4.09
2019-01-23T09:13:56.965Z,-3.77
2019-01-23T09:19:02.673Z,-3.69
2019-01-23T09:24:08.288Z,-3.33
2019-01-23T09:29:14.350Z,-3.33
2019-01-23T09:34:49.350Z,-3.15
2019-01-23T09:40:34.313Z,-2.97
2019-01-23T09:45:58.356Z,-2.84
2019-01-23T09:51:46.628Z,-2.90
2019-01-23T09:56:52.266Z,-2.77
2019-01-23T10:01:57.872Z,-2.36
2019-01-23T10:07:03.499Z,-2.36
2019-01-23T10:12:09.148Z,-1.93
2019-01-23T10:17:14.778Z,-2.06
2019-01-23T10:22:20.387Z,-1.79
2019-01-23T10:27:26.311Z,-2.20
2019-01-23T10:32:35.153Z,-2.03
2019-01-23T10:37:40.965Z,-1.56
2019-01-23T10:42:46.837Z,-1.59
2019-01-23T10:47:56.184Z,-1.93
2019-01-23T10:53:01.068Z,-1.57
2019-01-23T10:58:06.884Z,-1.47
2019-01-23T11:03:12.503Z,-1.70
2019-01-23T11:08:18.210Z,-1.43
2019-01-23T11:13:23.799Z,-1.26
2019-01-23T11:18:30.360Z,-1.50
2019-01-23T11:23:35.963Z,-1.48
2019-01-23T11:28:41.569Z,-1.28
2019-01-23T11:33:47.178Z,-1.69
2019-01-23T11:38:52.821Z,-1.84
2019-01-23T11:43:58.875Z,-1.61
2019-01-23T11:49:04.645Z,-1.63
2019-01-23T11:54:10.277Z,-1.06
2019-01-23T11:59:15.900Z,-1.21
2019-01-23T12:04:22.194Z,-1.21
2019-01-23T12:09:27.772Z,-1.31
2019-01-23T12:14:33.387Z,-1.20
2019-01-23T12:19:39.008Z,-1.42
2019-01-23T12:24:44.674Z,-1.06
2019-01-23T12:29:50.797Z,-0.91
2019-01-23T12:34:56.821Z,-0.79
2019-01-23T12:40:02.440Z,-0.53
2019-01-23T12:45:13.785Z,-0.87
2019-01-23T12:50:22.517Z,-0.75
2019-01-23T12:55:32.370Z,-0.89
2019-01-23T13:00:38.477Z,-0.36
2019-01-23T13:05:44.115Z,-0.70
2019-01-23T13:10:50.892Z,-0.64
2019-01-23T13:15:56.492Z,-0.67
2019-01-23T13:21:02.109Z,-0.54
2019-01-23T13:26:09.136Z,-0.81
2019-01-23T13:31:14.736Z,-0.60
2019-01-23T13:36:20.507Z,-0.40
2019-01-23T13:41:26.109Z,-0.67
2019-01-23T13:46:32.217Z,-0.63
2019-01-23T13:51:37.797Z,-0.54
2019-01-23T13:56:43.408Z,-1.19
2019-01-23T14:01:48.967Z,-1.02
2019-01-23T14:06:54.568Z,-1.36
2019-01-23T14:12:00.586Z,-1.38
2019-01-23T14:17:06.472Z,-1.62
2019-01-23T14:22:12.630Z,-1.87
2019-01-23T18:39:44.644Z,-5.23
2019-01-23T18:45:21.678Z,-5.19
2019-01-23T18:51:26.709Z,-4.98
2019-01-23T18:56:34.231Z,-5.42
2019-01-23T19:01:45.974Z,-4.97
2019-01-23T19:06:51.937Z,-4.82
2019-01-23T19:12:00.144Z,-4.71
2019-01-23T19:17:08.603Z,-4.54
2019-01-23T19:22:14.916Z,-4.54
2019-01-23T19:27:21.569Z,-4.48
2019-01-23T19:32:27.554Z,-4.84
2019-01-23T19:37:34.935Z,-4.62
2019-01-23T19:42:44.148Z,-4.51
2019-01-23T19:47:55.002Z,-4.57
2019-01-23T19:53:02.133Z,-5.06
2019-01-23T19:58:12.023Z,-4.94
2019-01-23T20:03:20.545Z,-4.97
2019-01-23T20:08:26.556Z,-4.87
2019-01-23T20:13:32.916Z,-4.90
2019-01-23T20:18:51.098Z,-5.00
2019-01-23T20:24:00.546Z,-4.95
2019-01-23T20:29:08.864Z,-5.01
2019-01-23T20:34:29.191Z,-5.20
2019-01-23T20:39:36.216Z,-5.28
2019-01-23T20:44:43.964Z,-5.35
2019-01-23T20:49:50.475Z,-5.50
2019-01-23T20:54:58.832Z,-5.49
2019-01-23T21:00:05.735Z,-5.59
2019-01-23T21:05:14.109Z,-5.71
2019-01-23T21:10:20.802Z,-5.58
2019-01-23T21:15:28.990Z,-5.66
2019-01-23T21:20:41.629Z,-6.00
2019-01-23T21:25:50.014Z,-5.75
2019-01-23T21:30:56.224Z,-5.94
2019-01-23T21:36:03.446Z,-5.83
2019-01-23T21:41:11.082Z,-6.31
2019-01-23T21:46:17.282Z,-6.31
2019-01-23T21:51:23.056Z,-6.30
2019-01-23T21:56:28.684Z,-6.49
2019-01-23T22:01:34.687Z,-6.25
2019-01-23T22:06:41.321Z,-6.43
2019-01-23T22:11:47.229Z,-6.56
2019-01-23T22:16:55.192Z,-6.61
2019-01-23T22:22:03.268Z,-6.50
2019-01-23T22:27:09.304Z,-6.65
2019-01-23T22:32:14.935Z,-6.80
2019-01-23T22:37:28.668Z,-6.81
2019-01-23T22:42:35.812Z,-6.92
2019-01-23T22:47:41.431Z,-6.75
2019-01-23T22:52:48.504Z,-6.86
2019-01-23T22:57:55.700Z,-6.44
2019-01-23T23:03:04.026Z,-6.67
2019-01-23T23:08:11.718Z,-6.60
2019-01-23T23:13:22.335Z,-6.38
2019-01-23T23:18:28.346Z,-6.12
2019-01-23T23:23:35.399Z,-6.04
2019-01-23T23:28:40.897Z,-6.20
2019-01-23T23:33:46.462Z,-6.09
2019-01-23T23:38:52.233Z,-5.87
2019-01-23T23:43:58.136Z,-5.96
2019-01-23T23:55:00.884Z,-5.94
